Time;durP1;ratioP1;P1;durP2;ratioP2;P2;SDS_P1;SDS_P2;PMS_P1;PMS_P2;Temp;Humidity;BMP_temperature;BMP_pressure;BME280_temperature;BME280_humidity;BME280_pressure;Samples;Min_cycle;Max_cycle;Signal;HPM_P1;HPM_P2
2022/05/25 00:01:08;;;;;;;4.20;1.67;;;11.50;99.90;;;;;;5017889;28;20161;-86
2022/05/25 00:03:34;;;;;;;1.77;1.03;;;11.50;99.90;;;;;;5001832;28;20430;-94
2022/05/25 00:06:04;;;;;;;3.50;1.27;;;11.50;99.90;;;;;;5013078;28;20469;-91
2022/05/25 00:08:31;;;;;;;2.20;1.97;;;11.50;99.90;;;;;;5012303;28;20423;-86
2022/05/25 00:10:56;;;;;;;6.10;1.23;;;11.50;99.90;;;;;;5012445;28;20407;-89
2022/05/25 00:13:23;;;;;;;3.57;1.57;;;11.30;99.90;;;;;;4994285;28;20426;-89
2022/05/25 00:15:48;;;;;;;2.07;1.10;;;11.30;99.90;;;;;;4994204;28;20175;-88
2022/05/25 00:18:14;;;;;;;1.93;1.07;;;11.30;99.90;;;;;;4994642;28;20920;-87
2022/05/25 00:20:39;;;;;;;2.63;1.10;;;11.30;99.90;;;;;;4995747;28;20202;-95
2022/05/25 00:23:05;;;;;;;1.97;1.57;;;11.30;99.90;;;;;;5012775;28;20578;-90
2022/05/25 00:25:34;;;;;;;3.17;1.80;;;11.30;99.90;;;;;;4994752;28;20183;-87
2022/05/25 00:28:07;;;;;;;4.20;2.67;;;11.40;99.90;;;;;;4995272;28;20180;-89
2022/05/25 00:30:34;;;;;;;2.13;1.83;;;11.40;99.90;;;;;;5012541;28;20485;-92
2022/05/25 00:33:02;;;;;;;3.10;1.97;;;11.40;99.90;;;;;;4995097;28;20495;-84
2022/05/25 00:35:35;;;;;;;2.37;1.30;;;11.50;99.90;;;;;;4995840;28;20835;-89
2022/05/25 00:38:01;;;;;;;2.20;1.40;;;11.50;99.90;;;;;;4997611;28;20556;-92
2022/05/25 00:40:38;;;;;;;3.07;1.67;;;11.50;99.90;;;;;;5001085;28;20558;-88
2022/05/25 00:43:04;;;;;;;4.40;1.97;;;11.50;99.90;;;;;;4998478;28;21037;-87
2022/05/25 00:45:33;;;;;;;2.77;2.00;;;11.60;99.90;;;;;;4998007;28;20445;-90
2022/05/25 00:48:00;;;;;;;3.50;2.10;;;11.60;99.90;;;;;;4997984;28;20928;-92
2022/05/25 00:51:12;;;;;;;2.70;2.03;;;11.60;99.90;;;;;;4998738;28;20422;-89
2022/05/25 00:53:16;;;;;;;2.73;1.83;;;11.60;99.90;;;;;;5014091;28;20431;-89
2022/05/25 00:56:12;;;;;;;3.20;2.43;;;11.60;99.90;;;;;;5007032;28;20434;-90
2022/05/25 00:58:43;;;;;;;2.47;2.27;;;11.60;99.90;;;;;;5011635;28;20490;-89
2022/05/25 01:01:12;;;;;;;3.40;1.93;;;11.60;99.90;;;;;;5022803;28;20823;-88
2022/05/25 01:03:37;;;;;;;3.53;2.33;;;11.60;99.90;;;;;;4999192;28;20503;-87
2022/05/25 01:06:39;;;;;;;4.53;1.40;;;11.60;99.90;;;;;;5022028;28;20573;-90
2022/05/25 01:09:18;;;;;;;3.57;2.30;;;11.60;99.90;;;;;;5012189;28;20163;-91
2022/05/25 01:11:53;;;;;;;2.40;1.53;;;11.50;99.90;;;;;;5002764;28;20793;-94
2022/05/25 01:14:56;;;;;;;3.97;2.23;;;11.50;99.90;;;;;;5023477;28;20390;-94
2022/05/25 01:17:29;;;;;;;3.67;2.10;;;11.40;99.90;;;;;;5016290;28;20431;-91
2022/05/25 01:20:23;;;;;;;2.00;1.17;;;11.40;99.90;;;;;;5014502;28;20429;-92
2022/05/25 01:23:17;;;;;;;2.87;1.70;;;11.20;99.90;;;;;;5035107;28;20424;-91
2022/05/25 01:25:52;;;;;;;2.50;1.80;;;11.30;99.90;;;;;;5014958;28;20424;-91
2022/05/25 01:28:58;;;;;;;6.80;2.63;;;11.10;99.90;;;;;;5028668;28;20418;-86
2022/05/25 01:31:53;;;;;;;3.27;2.97;;;11.10;99.90;;;;;;5023939;28;20492;-90
2022/05/25 01:34:31;;;;;;;3.13;2.83;;;11.00;99.90;;;;;;5004681;28;20506;-89
2022/05/25 01:37:15;;;;;;;5.80;2.50;;;10.90;99.90;;;;;;4999160;28;20430;-93
2022/05/25 01:39:55;;;;;;;4.83;2.90;;;11.00;99.90;;;;;;5025541;28;20462;-86
2022/05/25 01:42:27;;;;;;;2.90;2.13;;;11.00;99.90;;;;;;5037953;28;20935;-87
2022/05/25 01:44:58;;;;;;;5.07;2.67;;;10.90;99.90;;;;;;5009897;28;20957;-91
2022/05/25 01:47:27;;;;;;;3.97;2.83;;;10.90;99.90;;;;;;5023702;28;20462;-85
2022/05/25 01:49:59;;;;;;;3.73;2.83;;;11.00;99.90;;;;;;4997023;28;20427;-84
2022/05/25 01:52:29;;;;;;;4.63;3.23;;;11.00;99.90;;;;;;5004392;28;20473;-96
2022/05/25 01:55:18;;;;;;;4.50;2.87;;;11.10;99.90;;;;;;5007872;28;20759;-96
2022/05/25 01:57:49;;;;;;;2.93;2.63;;;11.10;99.90;;;;;;5001464;28;20427;-93
2022/05/25 02:00:36;;;;;;;3.00;2.70;;;10.90;99.90;;;;;;5015074;28;20923;-87
2022/05/25 02:06:20;;;;;;;4.77;2.60;;;10.80;99.90;;;;;;5024264;28;20597;-85
2022/05/25 02:09:02;;;;;;;4.53;3.10;;;10.80;99.90;;;;;;5020369;28;20779;-84
2022/05/25 02:11:35;;;;;;;5.63;3.77;;;10.80;99.90;;;;;;5030557;28;20414;-89
2022/05/25 02:14:22;;;;;;;3.80;3.30;;;10.70;99.90;;;;;;5011660;28;20434;-87
2022/05/25 02:17:40;;;;;;;5.37;3.10;;;10.70;99.90;;;;;;5015387;28;20439;-92
2022/05/25 02:23:46;;;;;;;4.90;3.87;;;10.70;99.90;;;;;;5224202;22;21066;-95
2022/05/25 02:26:23;;;;;;;3.97;3.57;;;10.70;99.90;;;;;;5028749;28;20473;-94
2022/05/25 02:29:09;;;;;;;5.10;3.97;;;10.70;99.90;;;;;;5053034;28;20756;-88
2022/05/25 02:31:40;;;;;;;4.30;3.10;;;10.80;99.90;;;;;;5456100;22;20443;-87
2022/05/25 02:34:09;;;;;;;4.67;3.20;;;10.80;99.90;;;;;;5041611;28;20943;-89
2022/05/25 02:36:37;;;;;;;3.10;2.63;;;10.80;99.90;;;;;;5037917;28;21023;-96
2022/05/25 02:39:11;;;;;;;5.57;3.90;;;10.80;99.90;;;;;;5056491;28;20480;-96
2022/05/25 02:41:52;;;;;;;4.17;3.73;;;10.80;99.90;;;;;;5058373;28;20433;-93
2022/05/25 02:44:22;;;;;;;4.03;3.33;;;10.90;99.90;;;;;;5058722;28;20443;-96
2022/05/25 02:49:20;;;;;;;3.47;3.17;;;10.90;99.90;;;;;;5036115;28;20470;-92
2022/05/25 02:51:46;;;;;;;3.80;3.37;;;10.90;99.90;;;;;;5038244;28;20413;-87
2022/05/25 02:54:11;;;;;;;5.30;3.57;;;10.90;99.90;;;;;;5018099;28;20429;-96
2022/05/25 02:56:38;;;;;;;5.63;3.20;;;10.90;99.90;;;;;;5038606;28;20258;-95
2022/05/25 02:59:03;;;;;;;4.63;3.50;;;10.90;99.90;;;;;;5037134;28;20175;-87
2022/05/25 03:01:29;;;;;;;6.30;5.70;;;10.90;99.90;;;;;;5038173;28;20470;-86
2022/05/25 03:03:56;;;;;;;8.17;4.13;;;10.90;99.90;;;;;;5390977;22;20235;-86
2022/05/25 03:06:24;;;;;;;4.90;3.57;;;10.90;99.90;;;;;;5069962;28;20225;-88
2022/05/25 03:08:49;;;;;;;3.83;2.23;;;10.80;99.90;;;;;;5111075;22;21602;-86
2022/05/25 03:11:15;;;;;;;4.30;2.90;;;10.70;99.90;;;;;;5292068;22;20527;-86
2022/05/25 03:13:45;;;;;;;5.30;3.17;;;10.60;99.90;;;;;;5024091;23;20311;-86
2022/05/25 03:16:13;;;;;;;5.43;3.53;;;10.70;99.90;;;;;;5063509;28;20177;-94
2022/05/25 03:18:38;;;;;;;4.90;3.10;;;10.70;99.90;;;;;;5045631;28;20412;-87
2022/05/25 03:21:04;;;;;;;4.83;3.60;;;10.60;99.90;;;;;;5073173;28;20431;-86
2022/05/25 03:23:29;;;;;;;4.67;4.03;;;10.50;99.90;;;;;;5064801;28;20166;-87
2022/05/25 03:25:55;;;;;;;4.13;3.30;;;10.50;99.90;;;;;;5064245;28;20201;-95
2022/05/25 03:28:24;;;;;;;4.73;3.30;;;10.50;99.90;;;;;;5065533;28;20177;-88
2022/05/25 03:30:58;;;;;;;4.47;3.00;;;10.50;99.90;;;;;;5058216;28;20405;-94
2022/05/25 03:33:24;;;;;;;5.20;4.00;;;10.60;99.90;;;;;;5069102;28;20404;-87
2022/05/25 03:35:52;;;;;;;3.67;3.00;;;10.50;99.90;;;;;;5049357;28;20440;-92
2022/05/25 03:38:18;;;;;;;4.80;3.57;;;10.50;99.90;;;;;;5050350;28;20186;-87
2022/05/25 03:41:11;;;;;;;4.30;3.13;;;10.40;99.90;;;;;;5074511;28;20438;-90
2022/05/25 03:43:39;;;;;;;4.37;3.50;;;10.50;99.90;;;;;;5051317;28;20182;-96
2022/05/25 03:46:05;;;;;;;4.80;3.90;;;10.40;99.90;;;;;;5063453;28;20498;-94
2022/05/25 03:48:30;;;;;;;5.93;4.23;;;10.40;99.90;;;;;;5044006;28;20443;-86
2022/05/25 03:50:59;;;;;;;4.07;3.67;;;10.40;99.90;;;;;;5075320;28;20428;-87
2022/05/25 03:53:24;;;;;;;5.23;4.07;;;10.40;99.90;;;;;;5061251;28;20166;-86
2022/05/25 03:55:50;;;;;;;4.87;3.57;;;10.30;99.90;;;;;;5060373;28;20928;-89
2022/05/25 04:00:45;;;;;;;5.50;3.90;;;10.30;99.90;;;;;;5068690;28;20217;-86
2022/05/25 04:03:16;;;;;;;4.90;3.23;;;10.30;99.90;;;;;;5039596;23;20523;-87
2022/05/25 04:05:42;;;;;;;5.60;3.27;;;10.30;99.90;;;;;;5060730;22;20206;-87
2022/05/25 04:08:09;;;;;;;6.57;5.67;;;10.40;99.90;;;;;;5068066;28;20442;-88
2022/05/25 04:15:35;;;;;;;7.93;5.40;;;10.40;99.90;;;;;;5442604;22;20298;-87
2022/05/25 04:18:02;;;;;;;6.13;5.17;;;10.40;99.90;;;;;;5058045;28;20416;-87
2022/05/25 04:20:29;;;;;;;7.33;4.83;;;10.50;99.90;;;;;;5075902;28;20338;-87
2022/05/25 04:22:55;;;;;;;5.70;4.60;;;10.50;99.90;;;;;;5080055;23;20578;-86
2022/05/25 04:27:48;;;;;;;5.63;4.60;;;10.60;99.90;;;;;;5627777;22;20232;-87
2022/05/25 04:32:49;;;;;;;5.40;4.60;;;10.70;99.90;;;;;;5253282;22;20493;-92
2022/05/25 04:35:15;;;;;;;8.50;5.10;;;10.70;99.90;;;;;;5049680;28;20423;-96
2022/05/25 04:37:54;;;;;;;6.53;3.87;;;10.70;99.90;;;;;;5068144;28;20184;-87
2022/05/25 04:42:46;;;;;;;6.20;4.87;;;10.80;99.90;;;;;;5061875;22;20564;-87
2022/05/25 04:45:12;;;;;;;7.03;4.70;;;10.90;99.90;;;;;;5038527;28;20249;-94
2022/05/25 04:47:40;;;;;;;7.00;5.37;;;10.90;99.90;;;;;;5033432;28;20978;-96
2022/05/25 04:50:24;;;;;;;6.00;4.20;;;11.00;99.90;;;;;;5041721;28;20532;-94
2022/05/25 04:53:02;;;;;;;5.50;4.90;;;11.10;99.90;;;;;;5054267;28;20434;-87
2022/05/25 04:58:25;;;;;;;6.20;5.50;;;11.40;99.90;;;;;;5069128;28;20400;-93
2022/05/25 05:00:51;;;;;;;5.33;4.40;;;11.60;99.90;;;;;;5074336;22;20481;-89
2022/05/25 05:03:17;;;;;;;9.87;6.00;;;11.70;99.90;;;;;;5049654;28;20417;-86
2022/05/25 05:05:44;;;;;;;6.43;4.87;;;11.90;99.90;;;;;;5050323;28;20964;-84
2022/05/25 05:08:09;;;;;;;9.10;6.90;;;12.10;99.90;;;;;;5047279;28;20411;-84
2022/05/25 05:10:35;;;;;;;6.30;5.30;;;12.10;99.90;;;;;;5048161;28;20948;-84
2022/05/25 05:13:04;;;;;;;8.10;5.47;;;12.40;99.90;;;;;;5059153;23;20303;-92
2022/05/25 05:15:32;;;;;;;6.63;5.53;;;12.50;99.90;;;;;;5053655;28;20238;-86
2022/05/25 05:18:01;;;;;;;6.50;4.83;;;12.60;99.90;;;;;;5059388;28;20398;-90
2022/05/25 05:20:27;;;;;;;6.13;5.00;;;12.70;99.90;;;;;;5069462;28;20631;-92
2022/05/25 05:22:59;;;;;;;6.90;5.60;;;12.60;99.90;;;;;;5043477;28;20428;-85
2022/05/25 05:25:25;;;;;;;5.33;4.60;;;12.50;99.90;;;;;;5056183;28;20299;-85
2022/05/25 05:27:51;;;;;;;6.93;5.30;;;12.70;99.90;;;;;;5060168;28;20471;-85
2022/05/25 05:30:20;;;;;;;6.30;4.33;;;13.00;99.90;;;;;;5053486;28;20817;-86
2022/05/25 05:32:46;;;;;;;6.00;5.37;;;13.40;99.90;;;;;;5048703;28;20432;-88
2022/05/25 05:35:12;;;;;;;6.60;5.30;;;13.60;99.90;;;;;;5045998;28;20427;-87
2022/05/25 05:37:51;;;;;;;6.40;5.20;;;13.50;99.90;;;;;;5031649;28;20428;-91
2022/05/25 05:40:19;;;;;;;6.90;5.10;;;13.30;99.90;;;;;;5047253;28;20212;-89
2022/05/25 05:42:47;;;;;;;7.07;5.50;;;13.60;99.90;;;;;;5069641;28;20403;-86
2022/05/25 05:45:16;;;;;;;5.50;4.90;;;13.80;99.90;;;;;;5061545;28;20474;-86
2022/05/25 05:47:53;;;;;;;6.10;5.50;;;13.90;99.90;;;;;;5054148;28;20467;-89
2022/05/25 05:50:23;;;;;;;6.07;5.43;;;14.20;99.90;;;;;;5061962;28;20412;-90
2022/05/25 05:52:50;;;;;;;5.93;4.20;;;14.30;18.80;;;;;;5066895;28;20428;-90
2022/05/25 05:55:17;;;;;;;6.17;5.07;;;14.50;38.60;;;;;;5056256;28;20909;-87
2022/05/25 05:57:43;;;;;;;4.80;4.40;;;14.80;1.00;;;;;;5044728;28;20421;-87
2022/05/25 06:00:11;;;;;;;6.47;4.93;;;15.00;1.00;;;;;;5039391;28;20439;-93
2022/05/25 06:02:36;;;;;;;4.20;3.80;;;15.20;1.00;;;;;;5056504;28;20414;-88
2022/05/25 06:05:03;;;;;;;4.60;4.17;;;15.20;1.00;;;;;;5055647;28;20508;-88
2022/05/25 06:07:29;;;;;;;5.40;4.90;;;15.60;1.00;;;;;;5058167;28;20850;-88
2022/05/25 06:09:56;;;;;;;4.53;3.40;;;15.50;1.00;;;;;;5041918;28;20464;-96
2022/05/25 06:12:22;;;;;;;5.23;4.73;;;15.50;1.00;;;;;;5061415;28;20223;-86
2022/05/25 06:14:48;;;;;;;5.10;4.10;;;15.80;1.00;;;;;;5055757;28;20748;-87
2022/05/25 06:19:59;;;;;;;6.90;3.93;;;16.10;99.90;;;;;;5064121;28;20709;-87
2022/05/25 06:22:25;;;;;;;3.63;3.33;;;16.20;1.00;;;;;;5066186;28;20422;-86
2022/05/25 06:24:52;;;;;;;4.90;3.67;;;16.30;99.90;;;;;;5058183;28;20467;-95
2022/05/25 06:27:19;;;;;;;5.20;3.87;;;16.50;1.00;;;;;;5060229;28;20224;-94
2022/05/25 06:29:49;;;;;;;4.13;3.23;;;16.70;99.90;;;;;;5061284;28;20908;-90
2022/05/25 06:32:18;;;;;;;4.70;4.10;;;16.90;1.00;;;;;;5061813;28;20407;-89
2022/05/25 06:34:52;;;;;;;5.77;4.27;;;17.10;1.00;;;;;;5060458;28;20780;-91
2022/05/25 06:37:22;;;;;;;6.60;3.53;;;17.20;99.90;;;;;;5062515;28;20397;-88
2022/05/25 06:39:49;;;;;;;7.53;3.40;;;19.00;1.00;;;;;;5057573;28;20437;-96
2022/05/25 06:42:14;;;;;;;5.00;3.50;;;21.10;99.90;;;;;;5060272;28;20883;-96
2022/05/25 06:44:42;;;;;;;4.10;2.77;;;21.90;99.90;;;;;;5044219;28;20425;-86
2022/05/25 06:47:14;;;;;;;4.27;2.90;;;22.40;99.90;;;;;;5050267;28;20216;-89
2022/05/25 06:49:39;;;;;;;3.73;2.90;;;22.80;99.90;;;;;;5058092;28;20392;-93
2022/05/25 06:52:12;;;;;;;4.10;3.03;;;22.70;99.90;;;;;;5057851;28;20499;-88
2022/05/25 06:54:37;;;;;;;3.00;2.47;;;23.10;99.90;;;;;;5062830;28;20172;-89
2022/05/25 06:57:04;;;;;;;3.10;2.80;;;23.00;99.90;;;;;;5039844;28;20476;-89
2022/05/25 06:59:29;;;;;;;3.40;2.70;;;23.60;99.80;;;;;;5041798;28;20263;-93
2022/05/25 07:01:55;;;;;;;6.80;3.23;;;23.50;95.40;;;;;;5040287;28;20913;-95
2022/05/25 07:04:24;;;;;;;4.93;2.40;;;23.60;92.50;;;;;;5039574;28;20208;-92
2022/05/25 07:07:05;;;;;;;3.00;1.70;;;23.90;73.50;;;;;;5057913;28;20204;-92
2022/05/25 07:09:39;;;;;;;3.20;2.60;;;24.00;71.20;;;;;;5041436;28;20466;-95
2022/05/25 07:12:11;;;;;;;2.40;1.50;;;24.50;67.00;;;;;;5046229;28;20493;-93
2022/05/25 07:14:39;;;;;;;2.67;1.70;;;24.40;50.10;;;;;;5041510;28;20900;-92
2022/05/25 07:17:05;;;;;;;3.40;1.90;;;24.50;41.30;;;;;;5045113;28;20472;-92
2022/05/25 07:19:31;;;;;;;2.50;2.27;;;24.70;37.50;;;;;;5049662;28;20626;-94
2022/05/25 07:22:07;;;;;;;2.50;1.70;;;24.50;29.90;;;;;;5045454;28;20838;-95
2022/05/25 07:24:38;;;;;;;2.60;1.27;;;24.60;28.00;;;;;;5039253;28;20408;-90
2022/05/25 07:27:07;;;;;;;3.10;1.67;;;24.10;27.20;;;;;;5042883;28;21045;-91
2022/05/25 07:29:34;;;;;;;2.93;1.47;;;21.70;22.90;;;;;;5078005;28;20424;-91
2022/05/25 07:32:06;;;;;;;2.63;1.40;;;23.60;38.40;;;;;;5059130;28;20441;-96
2022/05/25 07:34:37;;;;;;;2.27;1.40;;;25.10;40.80;;;;;;5039692;28;20432;-95
2022/05/25 07:37:32;;;;;;;1.90;1.30;;;25.20;24.00;;;;;;5041507;28;20416;-91
2022/05/25 07:40:05;;;;;;;3.23;1.90;;;20.40;31.50;;;;;;5032939;28;20794;-83
2022/05/25 07:42:32;;;;;;;3.70;1.67;;;22.20;99.90;;;;;;5054900;28;20751;-86
2022/05/25 07:44:59;;;;;;;4.40;1.63;;;22.60;91.90;;;;;;5052407;28;20940;-84
2022/05/25 07:47:27;;;;;;;3.50;1.80;;;20.20;99.70;;;;;;5056662;28;20468;-84
2022/05/25 07:49:53;;;;;;;4.87;2.30;;;21.50;90.00;;;;;;5057422;28;20412;-84
2022/05/25 07:52:21;;;;;;;1.43;1.20;;;23.80;45.70;;;;;;5057298;28;20420;-84
2022/05/25 07:54:47;;;;;;;3.90;1.63;;;24.70;38.80;;;;;;5057809;28;20200;-84
2022/05/25 07:57:13;;;;;;;3.03;1.43;;;25.40;32.00;;;;;;5058349;28;20408;-82
2022/05/25 07:59:40;;;;;;;3.53;1.07;;;25.40;22.70;;;;;;5056881;28;20419;-85
2022/05/25 08:07:47;;;;;;;3.40;0.80;;;25.10;6.50;;;;;;5057729;28;20978;-83
2022/05/25 08:10:16;;;;;;;3.70;1.77;;;25.10;9.20;;;;;;5058992;28;20419;-84
2022/05/25 08:12:43;;;;;;;1.83;0.70;;;23.10;1.00;;;;;;5057391;28;20478;-86
2022/05/25 08:15:10;;;;;;;1.33;0.77;;;25.40;10.40;;;;;;5062438;28;20404;-84
2022/05/25 08:17:39;;;;;;;1.10;0.47;;;24.00;1.00;;;;;;5059335;28;20427;-83
2022/05/25 08:20:06;;;;;;;1.87;1.37;;;25.00;5.70;;;;;;5076648;28;20903;-82
2022/05/25 08:22:33;;;;;;;2.20;0.70;;;26.10;6.90;;;;;;5049086;28;20447;-88
2022/05/25 08:24:59;;;;;;;1.63;0.63;;;22.90;1.00;;;;;;5071426;28;20430;-89
2022/05/25 08:27:25;;;;;;;0.87;0.63;;;24.10;1.00;;;;;;5062309;28;20475;-86
2022/05/25 08:29:50;;;;;;;1.33;0.63;;;25.80;5.30;;;;;;5052875;28;20413;-87
2022/05/25 08:32:16;;;;;;;1.50;0.70;;;25.80;2.50;;;;;;5054678;28;20209;-87
2022/05/25 08:34:43;;;;;;;3.10;0.70;;;26.30;2.90;;;;;;5020875;28;20181;-88
2022/05/25 08:37:09;;;;;;;1.97;0.83;;;26.80;2.50;;;;;;5020553;28;20166;-93
2022/05/25 08:39:35;;;;;;;2.20;0.90;;;25.10;1.00;;;;;;5044006;28;20427;-86
2022/05/25 08:42:05;;;;;;;1.90;1.03;;;25.70;1.00;;;;;;5040034;28;20457;-92
2022/05/25 08:44:32;;;;;;;2.07;0.90;;;26.20;1.00;;;;;;5061274;28;20173;-85
2022/05/25 08:47:03;;;;;;;4.10;0.60;;;25.20;1.00;;;;;;5062635;28;20467;-96
2022/05/25 08:49:32;;;;;;;1.27;0.67;;;24.00;1.00;;;;;;5057576;28;20411;-86
2022/05/25 08:52:01;;;;;;;2.00;0.60;;;23.70;1.00;;;;;;5055670;28;20400;-84
2022/05/25 08:54:28;;;;;;;2.07;0.40;;;25.80;1.00;;;;;;5055311;28;20424;-85
2022/05/25 08:57:00;;;;;;;1.30;0.37;;;26.30;1.00;;;;;;5055460;28;20489;-83
2022/05/25 08:59:32;;;;;;;1.73;0.83;;;26.80;1.00;;;;;;5057368;28;20423;-85
2022/05/25 09:02:14;;;;;;;0.70;0.40;;;27.10;1.00;;;;;;5067409;28;20407;-84
2022/05/25 09:04:53;;;;;;;1.67;0.67;;;26.60;1.00;;;;;;5055202;28;20411;-86
2022/05/25 09:07:29;;;;;;;2.23;0.60;;;26.30;1.00;;;;;;5037433;28;20464;-84
2022/05/25 09:09:55;;;;;;;1.30;0.40;;;25.80;1.00;;;;;;5055375;28;20412;-84
2022/05/25 09:12:49;;;;;;;1.70;0.53;;;26.60;1.00;;;;;;5055239;28;20463;-84
2022/05/25 09:15:25;;;;;;;3.00;0.60;;;23.60;1.00;;;;;;5030512;28;20178;-85
2022/05/25 09:17:56;;;;;;;1.47;0.63;;;25.60;1.00;;;;;;5054761;28;20447;-83
2022/05/25 09:20:25;;;;;;;0.97;0.50;;;26.60;1.00;;;;;;5037043;28;20408;-86
2022/05/25 09:22:52;;;;;;;0.83;0.30;;;27.20;1.00;;;;;;5054800;28;20415;-83
2022/05/25 09:25:18;;;;;;;1.33;0.60;;;26.80;1.00;;;;;;5055097;28;20515;-83
2022/05/25 09:28:07;;;;;;;0.83;0.33;;;27.20;1.00;;;;;;5054846;28;20522;-84
2022/05/25 09:30:37;;;;;;;1.07;0.30;;;26.30;1.00;;;;;;5054841;28;20400;-86
2022/05/25 09:33:18;;;;;;;0.63;0.30;;;27.00;1.00;;;;;;5030129;28;20960;-82
2022/05/25 09:35:56;;;;;;;1.33;0.53;;;23.70;1.00;;;;;;5034385;28;20920;-81
2022/05/25 09:38:43;;;;;;;2.50;0.57;;;21.90;1.00;;;;;;5034411;28;20424;-83
2022/05/25 09:41:21;;;;;;;0.77;0.60;;;21.40;1.00;;;;;;5016790;28;20583;-83
2022/05/25 09:43:53;;;;;;;2.80;0.43;;;22.70;1.00;;;;;;5016767;28;20445;-83
2022/05/25 09:46:39;;;;;;;1.33;0.40;;;21.60;1.00;;;;;;5034476;28;20448;-84
2022/05/25 09:49:07;;;;;;;1.27;0.43;;;22.10;1.00;;;;;;5034268;28;20409;-84
2022/05/25 09:52:05;;;;;;;0.87;0.50;;;22.30;1.00;;;;;;5034346;28;20436;-84
2022/05/25 09:54:36;;;;;;;1.10;0.50;;;23.50;1.00;;;;;;5016993;28;20470;-82
2022/05/25 09:57:13;;;;;;;1.70;0.70;;;23.50;1.00;;;;;;5034209;28;20551;-82
2022/05/25 09:59:49;;;;;;;1.67;0.40;;;23.60;1.00;;;;;;5034132;28;20439;-82
2022/05/25 10:02:23;;;;;;;1.43;0.57;;;23.10;1.00;;;;;;5034034;28;20880;-86
2022/05/25 10:04:52;;;;;;;0.93;0.60;;;23.30;1.00;;;;;;5016779;28;20428;-85
2022/05/25 10:07:31;;;;;;;1.53;0.63;;;24.30;1.00;;;;;;5033189;28;20480;-82
2022/05/25 10:10:01;;;;;;;0.80;0.60;;;23.30;1.00;;;;;;5033064;28;20467;-84
2022/05/25 10:12:33;;;;;;;0.90;0.40;;;22.20;1.00;;;;;;5032109;28;20473;-85
2022/05/25 10:15:05;;;;;;;1.17;0.53;;;21.50;1.00;;;;;;5033087;28;20447;-86
2022/05/25 10:17:35;;;;;;;1.70;0.40;;;23.50;1.00;;;;;;5035896;28;20405;-83
2022/05/25 10:20:05;;;;;;;4.83;1.03;;;21.90;1.00;;;;;;5058917;28;20447;-87
2022/05/25 10:22:44;;;;;;;0.90;0.43;;;20.80;1.00;;;;;;5055615;28;20535;-87
2022/05/25 10:25:47;;;;;;;2.57;0.40;;;20.70;1.00;;;;;;5033398;28;20841;-85
2022/05/25 10:28:35;;;;;;;1.13;0.70;;;20.40;1.00;;;;;;5033304;28;20431;-84
2022/05/25 10:36:57;;;;;;;0.80;0.50;;;20.40;1.00;;;;;;5033245;28;20424;-83
2022/05/25 10:39:29;;;;;;;1.17;0.40;;;22.00;1.00;;;;;;5016027;28;20470;-84
2022/05/25 10:42:26;;;;;;;1.37;0.30;;;21.10;1.00;;;;;;5032657;28;20413;-85
2022/05/25 10:45:15;;;;;;;1.67;0.50;;;20.20;1.00;;;;;;5032439;28;20424;-83
2022/05/25 10:47:50;;;;;;;0.97;0.80;;;20.10;1.00;;;;;;5032443;28;20466;-82
2022/05/25 10:50:45;;;;;;;1.83;0.80;;;20.50;1.00;;;;;;5032871;28;20773;-82
2022/05/25 10:54:44;;;;;;;1.60;0.70;;;21.50;1.00;;;;;;5032948;28;20408;-83
2022/05/25 10:57:17;;;;;;;2.50;0.50;;;20.80;1.00;;;;;;5032857;28;20424;-85
2022/05/25 11:00:06;;;;;;;1.90;0.53;;;20.30;1.00;;;;;;4997643;28;20446;-83
2022/05/25 11:02:56;;;;;;;1.67;0.20;;;20.80;1.00;;;;;;5014654;28;20521;-85
2022/05/25 11:05:31;;;;;;;2.43;0.30;;;21.70;1.00;;;;;;5032861;28;20408;-84
2022/05/25 11:08:19;;;;;;;1.00;0.30;;;22.60;1.00;;;;;;5033046;28;20521;-84
2022/05/25 11:11:01;;;;;;;1.07;0.47;;;23.40;1.00;;;;;;5033377;28;20405;-86
2022/05/25 11:13:46;;;;;;;1.70;0.53;;;23.80;1.00;;;;;;5015292;28;20588;-85
2022/05/25 11:16:20;;;;;;;1.73;0.30;;;23.80;1.00;;;;;;5033213;28;20956;-84
2022/05/25 11:19:04;;;;;;;1.03;0.80;;;23.30;1.00;;;;;;5032983;28;20520;-84
2022/05/25 11:21:49;;;;;;;3.03;0.60;;;23.80;1.00;;;;;;5032984;28;20416;-86
2022/05/25 11:24:45;;;;;;;0.93;0.20;;;24.20;1.00;;;;;;5032938;28;20921;-86
2022/05/25 11:27:46;;;;;;;1.33;0.70;;;24.80;1.00;;;;;;5032857;28;20476;-85
2022/05/25 11:30:35;;;;;;;2.23;0.50;;;24.80;1.00;;;;;;5032973;28;20406;-86
2022/05/25 11:33:27;;;;;;;0.80;0.33;;;25.50;1.00;;;;;;5032563;28;20420;-86
2022/05/25 11:36:19;;;;;;;1.30;0.43;;;25.60;1.00;;;;;;5032965;28;20479;-86
2022/05/25 11:39:22;;;;;;;2.30;0.33;;;24.60;1.00;;;;;;5032900;28;20413;-87
2022/05/25 11:42:30;;;;;;;0.80;0.30;;;24.90;1.00;;;;;;5032888;28;20421;-86
2022/05/25 11:45:03;;;;;;;1.27;0.20;;;23.70;1.00;;;;;;5032916;28;20808;-87
2022/05/25 11:48:08;;;;;;;1.10;0.30;;;22.50;1.00;;;;;;5032338;28;20472;-86
2022/05/25 11:51:08;;;;;;;1.17;0.20;;;23.30;1.00;;;;;;5015181;28;20755;-84
2022/05/25 11:53:51;;;;;;;2.57;0.40;;;23.50;1.00;;;;;;5032687;28;20508;-86
2022/05/25 11:56:36;;;;;;;0.60;0.37;;;23.40;1.00;;;;;;5015099;28;20409;-83
2022/05/25 11:59:20;;;;;;;0.90;0.30;;;23.80;1.00;;;;;;5014875;28;20425;-82
2022/05/25 12:02:07;;;;;;;2.10;0.40;;;23.80;1.00;;;;;;5032264;28;20768;-84
2022/05/25 12:04:53;;;;;;;0.80;0.20;;;23.60;1.00;;;;;;5032799;28;20783;-85
2022/05/25 12:07:49;;;;;;;1.23;0.30;;;22.70;1.00;;;;;;5032575;28;20968;-83
2022/05/25 12:10:20;;;;;;;2.20;0.43;;;21.80;1.00;;;;;;5032612;28;20520;-82
2022/05/25 12:12:58;;;;;;;0.53;0.30;;;21.60;1.00;;;;;;5032351;28;20456;-82
2022/05/25 12:15:36;;;;;;;1.13;0.40;;;21.40;1.00;;;;;;5032696;28;20409;-85
2022/05/25 12:18:33;;;;;;;1.03;0.40;;;20.90;1.00;;;;;;5031847;28;20495;-83
2022/05/25 12:21:01;;;;;;;0.80;0.40;;;21.70;1.00;;;;;;5032479;28;20421;-83
2022/05/25 12:23:34;;;;;;;0.80;0.47;;;22.90;1.00;;;;;;5014683;28;20925;-83
2022/05/25 12:26:34;;;;;;;3.00;0.53;;;23.30;1.00;;;;;;5032496;28;20421;-86
2022/05/25 12:29:18;;;;;;;2.20;0.20;;;22.60;1.00;;;;;;4989424;28;20444;-83
2022/05/25 12:31:51;;;;;;;1.03;0.30;;;22.70;1.00;;;;;;5032115;28;20413;-84
2022/05/25 12:34:22;;;;;;;0.70;0.20;;;22.80;1.00;;;;;;5033394;28;20416;-82
2022/05/25 12:36:47;;;;;;;0.40;0.20;;;22.70;1.00;;;;;;5036220;28;20398;-83
2022/05/25 12:39:13;;;;;;;2.73;0.20;;;23.30;1.00;;;;;;5036021;28;20424;-83
2022/05/25 12:41:39;;;;;;;0.40;0.20;;;24.30;1.00;;;;;;5036124;28;20285;-85
2022/05/25 12:50:02;;;;;;;0.60;0.30;;;24.20;1.00;;;;;;5036516;28;20423;-84
2022/05/25 12:52:28;;;;;;;0.60;0.20;;;24.40;1.00;;;;;;5017983;28;20507;-83
2022/05/25 12:55:00;;;;;;;2.10;0.50;;;25.10;1.00;;;;;;5036266;28;20863;-85
2022/05/25 12:57:37;;;;;;;1.30;0.20;;;25.00;1.00;;;;;;5037396;28;20188;-85
2022/05/25 13:00:22;;;;;;;1.00;0.20;;;25.20;1.00;;;;;;5035717;28;20471;-84
2022/05/25 13:02:55;;;;;;;1.00;0.27;;;25.30;1.00;;;;;;5017339;28;20579;-84
2022/05/25 13:05:59;;;;;;;0.60;0.30;;;25.40;1.00;;;;;;5035573;28;20468;-85
2022/05/25 13:08:46;;;;;;;0.57;0.20;;;25.40;1.00;;;;;;5035295;28;20440;-84
2022/05/25 13:11:39;;;;;;;0.80;0.30;;;25.50;1.00;;;;;;5035475;28;20405;-84
2022/05/25 13:14:24;;;;;;;1.03;0.20;;;25.50;1.00;;;;;;5035269;28;20429;-82
2022/05/25 13:16:58;;;;;;;1.77;0.30;;;24.80;1.00;;;;;;5034369;28;20416;-83
2022/05/25 13:19:32;;;;;;;2.27;0.37;;;24.00;1.00;;;;;;5035329;28;20429;-83
2022/05/25 13:22:07;;;;;;;1.33;0.27;;;23.30;1.00;;;;;;5035386;28;20458;-84
2022/05/25 13:24:38;;;;;;;0.63;0.20;;;23.30;1.00;;;;;;5035368;28;20990;-86
2022/05/25 13:27:16;;;;;;;1.47;0.20;;;24.20;1.00;;;;;;5034979;28;20477;-83
2022/05/25 13:30:12;;;;;;;1.00;0.20;;;23.90;1.00;;;;;;5035206;28;20437;-83
2022/05/25 13:32:54;;;;;;;0.50;0.27;;;23.30;1.00;;;;;;5034694;28;20995;-84
2022/05/25 13:35:20;;;;;;;0.50;0.40;;;22.60;1.00;;;;;;5035184;28;20416;-84
2022/05/25 13:37:52;;;;;;;0.40;0.20;;;22.10;1.00;;;;;;5034865;28;20422;-82
2022/05/25 13:40:20;;;;;;;1.50;0.30;;;21.60;1.00;;;;;;5035022;28;20208;-82
2022/05/25 13:42:51;;;;;;;0.47;0.27;;;21.40;1.00;;;;;;5034763;28;20795;-83
2022/05/25 13:45:25;;;;;;;1.17;0.40;;;21.30;1.00;;;;;;5034314;28;20425;-82
2022/05/25 13:47:56;;;;;;;0.60;0.27;;;21.90;1.00;;;;;;5033887;28;20980;-83
2022/05/25 13:50:32;;;;;;;1.73;0.20;;;22.90;1.00;;;;;;5034650;28;20492;-85
2022/05/25 13:52:58;;;;;;;1.03;0.20;;;22.80;1.00;;;;;;5034561;28;20882;-85
2022/05/25 13:55:30;;;;;;;1.63;0.20;;;22.50;1.00;;;;;;5034668;28;20408;-84
2022/05/25 13:58:00;;;;;;;1.67;0.30;;;22.10;1.00;;;;;;5016681;28;20851;-83
2022/05/25 14:00:28;;;;;;;1.20;0.20;;;22.40;1.00;;;;;;5034580;28;20417;-85
2022/05/25 14:03:18;;;;;;;0.50;0.30;;;22.50;1.00;;;;;;5034048;28;20417;-83
2022/05/25 14:05:44;;;;;;;0.70;0.20;;;22.80;1.00;;;;;;5034029;28;20443;-87
2022/05/25 14:11:21;;;;;;;1.20;0.30;;;23.40;1.00;;;;;;5034730;28;20180;-82
2022/05/25 14:13:46;;;;;;;1.37;0.30;;;23.50;1.00;;;;;;5033911;28;20514;-82
2022/05/25 14:16:15;;;;;;;0.60;0.30;;;23.70;1.00;;;;;;5033944;28;20772;-82